Terminal Aerodrome Forecast
Issued by NWS

Home | Current Version | Previous Version | Graphics & Text | Print | Product List | Glossary On
Versions: 1 2 3 4 5 6 7 8 9 10 11 12 13 14 15 16 17 18 19 20 21 22 23
422
FTUS43 KGRB 190119 AAA
TAFCWA
TAF AMD
KCWA 190119Z 1901/1924 30004KT P6SM SCT040 BKN070
      TEMPO 1901/1905 -SHRA BKN040
     FM191000 35004KT P6SM SCT120
     FM191500 36004KT P6SM SCT035
     FM192000 16006KT P6SM SKC
      AMD LTD TO CLD VIS AND WIND 1903/1911=

USA.gov is the U.S. government's official web portal to all federal, state and local government web resources and services.